EW2670 Weather Reports


Display with metric or nautical units.
time (UTC)temp
F
wind
direction
speed
MPH
gust
MPH
rain 1hr
in
rain 24hr
in
rain mn
in
humidity
%
barometer
mb
20221206203019 48 247 17.0 24.0 0.00 0.00 0.00 28 1010.1
20221206202518 48 247 18.0 26.0 0.00 0.00 0.00 28 1010.0
20221206202038 48 247 19.0 27.0 0.00 0.00 0.00 28 1009.9
20221206201521 48 247 17.0 25.0 0.00 0.00 0.00 28 1009.9
20221206201059 49 247 18.0 26.0 0.00 0.00 0.00 27 1009.9
20221206200517 49 247 17.0 25.0 0.00 0.00 0.00 27 1009.9
20221206200016 49 247 17.0 25.0 0.00 0.00 0.00 27 1010.0
20221206195516 49 247 17.0 23.0 0.00 0.00 0.00 27 1009.8
20221206195017 49 247 18.0 26.0 0.00 0.00 0.00 27 1009.7
20221206194517 49 247 16.0 25.0 0.00 0.00 0.00 27 1009.8
20221206194038 49 225 15.0 23.0 0.00 0.00 0.00 28 1009.6
20221206193516 49 225 15.0 24.0 0.00 0.00 0.00 27 1009.4
20221206193016 49 225 16.0 24.0 0.00 0.00 0.00 27 1009.4
20221206192517 49 225 16.0 23.0 0.00 0.00 0.00 26 1009.7
20221206192016 49 247 16.0 23.0 0.00 0.00 0.00 27 1009.9
20221206191517 49 225 12.0 20.0 0.00 0.00 0.00 26 1009.8
20221206191016 49 225 9.0 20.0 0.00 0.00 0.00 27 1009.8
20221206190516 49 202 11.0 17.0 0.00 0.00 0.00 26 1009.9
20221206190016 49 225 13.0 23.0 0.00 0.00 0.00 27 1009.9
20221206185538 49 225 11.0 17.0 0.00 0.00 0.00 27 1009.9
20221206185016 49 225 14.0 22.0 0.00 0.00 0.00 28 1009.9
20221206184517 48 225 14.0 20.0 0.00 0.00 0.00 28 1009.9
20221206184018 48 225 14.0 22.0 0.00 0.00 0.00 28 1009.8
20221206183516 48 225 12.0 21.0 0.00 0.00 0.00 28 1009.9
20221206183016 48 247 13.0 20.0 0.00 0.00 0.00 28 1009.8
20221206182516 48 225 9.0 15.0 0.00 0.00 0.00 29 1010.0
20221206182016 48 225 8.0 15.0 0.00 0.00 0.00 28 1010.0
20221206181517 48 202 10.0 18.0 0.00 0.00 0.00 28 1010.0
20221206181016 48 202 7.0 12.0 0.00 0.00 0.00 31 1010.3
20221206180516 47 202 7.0 13.0 0.00 0.00 0.00 31 1010.4
20221206180016 47 225 8.0 13.0 0.00 0.00 0.00 32 1010.5
20221206175517 47 247 7.0 10.0 0.00 0.00 0.00 32 1010.6
20221206175016 47 247 6.0 9.0 0.00 0.00 0.00 30 1010.6
20221206174516 47 247 7.0 12.0 0.00 0.00 0.00 31 1010.7
20221206174016 47 247 9.0 14.0 0.00 0.00 0.00 33 1010.9
20221206173516 46 247 8.0 15.0 0.00 0.00 0.00 32 1010.9
20221206173016 46 225 12.0 16.0 0.00 0.00 0.00 32 1011.1
20221206172516 46 247 10.0 14.0 0.00 0.00 0.00 33 1010.9
20221206172017 45 225 10.0 15.0 0.00 0.00 0.00 34 1011.0
20221206171516 44 225 9.0 12.0 0.00 0.00 0.00 36 1011.0
20221206171016 44 202 8.0 15.0 0.00 0.00 0.00 37 1011.1
20221206170516 44 225 10.0 14.0 0.00 0.00 0.00 37 1011.2
20221206170016 44 225 8.0 12.0 0.00 0.00 0.00 37 1011.0
20221206165516 44 225 11.0 15.0 0.00 0.00 0.00 38 1010.9
20221206165020 44 225 11.0 20.0 0.00 0.00 0.00 41 1011.1
20221206164516 43 225 12.0 22.0 0.00 0.00 0.00 41 1010.9
20221206164016 42 225 8.0 16.0 0.00 0.00 0.00 48 1010.9
20221206163517 41 202 2.0 5.0 0.00 0.00 0.00 55 1010.7
20221206163017 40 157 2.0 4.0 0.00 0.00 0.00 57 1010.5
20221206162516 39 112 2.0 3.0 0.00 0.00 0.00 63 1010.4
20221206162016 38 0.0 0.0 0.00 0.00 0.00 65 1010.4
20221206161516 38 0.0 2.0 0.00 0.00 0.00 66 1010.5
20221206161017 37 135 2.0 4.0 0.00 0.00 0.00 66 1010.5
20221206160537 36 112 2.0 4.0 0.00 0.00 0.00 68 1010.4
20221206160016 36 0.0 2.0 0.00 0.00 0.00 73 1010.5
20221206155517 35 0.0 2.0 0.00 0.00 0.00 73 1010.5
20221206155016 35 0.0 0.0 0.00 0.00 0.00 76 1010.3
20221206154536 34 0.0 0.0 0.00 0.00 0.00 78 1010.2
20221206154057 33 0.0 0.0 0.00 0.00 0.00 81 1010.0
20221206153516 32 0.0 0.0 0.00 0.00 0.00 81 1010.1
20221206153016 32 0.0 0.0 0.00 0.00 0.00 83 1010.0
20221206152536 31 0.0 0.0 0.00 0.00 0.00 84 1010.0
20221206152017 31 0.0 0.0 0.00 0.00 0.00 85 1009.9
20221206151516 30 0.0 0.0 0.00 0.00 0.00 86 1009.8
20221206151016 29 0.0 1.0 0.00 0.00 0.00 88 1010.0
20221206150516 29 0.0 1.0 0.00 0.00 0.00 89 1009.9
20221206150016 27 0.0 1.0 0.00 0.00 0.00 90 1009.8
20221206145516 27 0.0 0.0 0.00 0.00 0.00 89 1009.8
20221206145016 26 0.0 0.0 0.00 0.00 0.00 90 1009.8
20221206144556 25 0.0 1.0 0.00 0.00 0.00 89 1009.7
20221206144016 25 0.0 1.0 0.00 0.00 0.00 90 1009.5
20221206143516 24 0.0 2.0 0.00 0.00 0.00 88 1009.4
20221206143016 24 0.0 1.0 0.00 0.00 0.00 88 1009.2
20221206142516 24 0.0 0.0 0.00 0.00 0.00 89 1009.2
20221206142037 24 0.0 1.0 0.00 0.00 0.00 88 1009.0
20221206141516 24 0.0 1.0 0.00 0.00 0.00 88 1009.0
20221206141016 25 0.0 0.0 0.00 0.00 0.00 90 1009.0
20221206140536 25 0.0 0.0 0.00 0.00 0.00 90 1008.6
20221206140017 24 0.0 0.0 0.00 0.00 0.00 89 1008.6
20221206135520 24 0.0 1.0 0.00 0.00 0.00 90 1008.4
20221206135016 23 225 1.0 2.0 0.00 0.00 0.00 87 1008.3
20221206134517 24 0.0 0.0 0.00 0.00 0.00 86 1008.2
20221206134018 24 0.0 1.0 0.00 0.00 0.00 87 1008.3
20221206133518 25 0.0 1.0 0.00 0.00 0.00 89 1008.3
20221206133037 25 0.0 0.0 0.00 0.00 0.00 87 1008.1
20221206132516 24 0.0 1.0 0.00 0.00 0.00 87 1008.1
20221206132016 25 0.0 1.0 0.00 0.00 0.00 84 1008.1
20221206131515 25 0.0 0.0 0.00 0.00 0.00 83 1008.1
20221206131016 26 225 1.0 2.0 0.00 0.00 0.00 86 1008.0
20221206130515 27 0.0 1.0 0.00 0.00 0.00 86 1007.9
20221206130015 27 0.0 1.0 0.00 0.00 0.00 85 1007.7
20221206125516 27 0.0 1.0 0.00 0.00 0.00 85 1008.1
20221206125015 28 0.0 1.0 0.00 0.00 0.00 85 1007.9
20221206124516 28 0.0 2.0 0.00 0.00 0.00 87 1008.1
20221206124015 28 0 4.0 6.0 0.00 0.00 0.00 85 1008.1
20221206123516 28 0 2.0 5.0 0.00 0.00 0.00 84 1008.1
20221206123016 29 202 2.0 5.0 0.00 0.00 0.00 85 1008.0
20221206122537 29 202 3.0 5.0 0.00 0.00 0.00 85 1007.9
20221206122015 29 180 4.0 7.0 0.00 0.00 0.00 85 1007.8
20221206121515 29 202 4.0 7.0 0.00 0.00 0.00 85 1007.8
20221206121017 29 202 4.0 7.0 0.00 0.00 0.00 85 1007.7
20221206120518 29 180 4.0 6.0 0.00 0.00 0.00 85 1007.6
20221206120017 29 202 5.0 8.0 0.00 0.00 0.00 85 1007.7
20221206115517 29 202 5.0 7.0 0.00 0.00 0.00 85 1007.8
20221206115017 28 202 5.0 7.0 0.00 0.00 0.00 87 1007.8
20221206114518 28 202 4.0 7.0 0.00 0.00 0.00 86 1007.7
20221206114017 28 225 3.0 5.0 0.00 0.00 0.00 85 1007.6
20221206113537 29 202 4.0 5.0 0.00 0.00 0.00 84 1007.7
20221206113017 29 202 3.0 6.0 0.00 0.00 0.00 85 1007.7
20221206112518 29 202 3.0 5.0 0.00 0.00 0.00 85 1007.8
20221206112018 29 202 4.0 5.0 0.00 0.00 0.00 86 1007.9
20221206111558 29 202 4.0 6.0 0.00 0.00 0.00 87 1008.1
20221206111017 29 202 3.0 6.0 0.00 0.00 0.00 89 1008.2
20221206110517 27 202 1.0 4.0 0.00 0.00 0.00 89 1007.9
20221206110018 26 0.0 1.0 0.00 0.00 0.00 84 1007.8
20221206105517 26 0.0 1.0 0.00 0.00 0.00 81 1007.7
20221206105017 27 0.0 1.0 0.00 0.00 0.00 81 1008.0
20221206104517 28 0.0 0.0 0.00 0.00 0.00 83 1007.9
20221206104037 28 0.0 1.0 0.00 0.00 0.00 83 1007.7
20221206103518 28 0.0 1.0 0.00 0.00 0.00 80 1007.9
20221206103017 29 247 1.0 1.0 0.00 0.00 0.00 82 1008.0
20221206102517 29 247 1.0 2.0 0.00 0.00 0.00 84 1008.0
20221206102017 28 0.0 1.0 0.00 0.00 0.00 82 1008.1
20221206101518 28 0.0 0.0 0.00 0.00 0.00 78 1008.0
20221206101017 29 0.0 1.0 0.00 0.00 0.00 74 1008.1
20221206100518 31 0.0 1.0 0.00 0.00 0.00 77 1008.3
20221206100018 32 0.0 0.0 0.00 0.00 0.00 78 1008.2
20221206095517 32 247 1.0 2.0 0.00 0.00 0.00 78 1008.5
20221206095018 32 247 1.0 2.0 0.00 0.00 0.00 78 1008.7
20221206094538 32 0.0 1.0 0.00 0.00 0.00 76 1008.7
20221206094017 33 0.0 0.0 0.00 0.00 0.00 75 1008.8
20221206093517 33 0.0 1.0 0.00 0.00 0.00 74 1008.9
20221206093042 34 0.0 1.0 0.00 0.00 0.00 73 1009.1
20221206092517 34 0.0 0.0 0.00 0.00 0.00 73 1008.8
20221206092017 35 0.0 2.0 0.00 0.00 0.00 73 1008.6
20221206091518 35 0.0 1.0 0.00 0.00 0.00 74 1008.4
20221206091017 35 0 2.0 7.0 0.00 0.00 0.00 75 1008.6
20221206090517 34 315 2.0 6.0 0.00 0.00 0.00 76 1008.9
20221206090018 34 292 3.0 5.0 0.00 0.00 0.00 76 1008.9
20221206085517 34 292 3.0 6.0 0.00 0.00 0.00 77 1008.7
20221206085037 33 292 4.0 7.0 0.00 0.00 0.00 77 1008.4
20221206084517 33 292 4.0 7.0 0.00 0.00 0.00 78 1008.3
20221206084039 33 292 3.0 7.0 0.00 0.00 0.00 78 1008.2
20221206083518 32 292 2.0 4.0 0.00 0.00 0.00 78 1008.1
20221206083017 32 270 2.0 5.0 0.00 0.00 0.00 79 1007.5
20221206082517 33 0.0 1.0 0.00 0.00 0.00 78 1007.2
20221206082018 33 0.0 1.0 0.00 0.00 0.00 78 1007.0
20221206081517 33 337 1.0 3.0 0.00 0.00 0.00 78 1007.1
20221206081018 33 0.0 2.0 0.00 0.00 0.00 79 1007.2
20221206080517 33 0 2.0 5.0 0.00 0.00 0.00 80 1007.2
20221206080017 33 337 2.0 6.0 0.00 0.00 0.00 81 1007.2
20221206075537 32 315 1.0 4.0 0.00 0.00 0.00 82 1007.3
20221206075038 32 315 1.0 3.0 0.00 0.00 0.00 83 1007.2
20221206074517 32 337 1.0 4.0 0.00 0.00 0.00 83 1007.1
20221206074017 32 315 1.0 5.0 0.00 0.00 0.00 83 1007.2
20221206073517 32 337 2.0 8.0 0.00 0.00 0.00 83 1007.2
20221206073017 32 337 2.0 7.0 0.00 0.00 0.00 83 1007.1
20221206072518 32 315 2.0 7.0 0.00 0.00 0.00 81 1007.1
20221206072037 32 315 1.0 5.0 0.00 0.00 0.00 79 1006.7
20221206071537 32 315 1.0 4.0 0.00 0.00 0.00 79 1006.6
20221206071017 32 315 2.0 5.0 0.00 0.00 0.00 79 1006.7
20221206070517 32 315 2.0 7.0 0.00 0.00 0.00 78 1006.5
20221206070037 32 315 1.0 5.0 0.00 0.00 0.00 77 1006.5
20221206065516 33 315 3.0 6.0 0.00 0.00 0.00 77 1006.4
20221206065037 33 337 4.0 7.0 0.00 0.00 0.00 77 1006.4
20221206064517 33 337 3.0 8.0 0.00 0.00 0.00 76 1006.3
20221206064016 33 337 2.0 6.0 0.00 0.00 0.00 75 1006.5
20221206063516 33 315 3.0 6.0 0.00 0.00 0.00 73 1006.6
20221206063016 33 315 2.0 6.0 0.00 0.00 0.00 72 1006.7
20221206062516 33 337 1.0 5.0 0.00 0.00 0.00 70 1006.6
20221206062016 33 315 2.0 5.0 0.00 0.00 0.00 70 1006.6
20221206061516 33 315 1.0 5.0 0.00 0.00 0.00 69 1006.6
20221206061016 33 337 1.0 3.0 0.00 0.00 0.00 68 1006.6
20221206060516 33 337 1.0 5.0 0.00 0.00 0.00 68 1006.7
20221206060036 33 337 1.0 3.0 0.00 0.00 0.00 69 1006.5
20221206055515 33 337 1.0 6.0 0.00 0.00 0.00 69 1006.7
20221206055016 33 337 1.0 3.0 0.00 0.00 0.00 70 1006.5
20221206054516 32 337 1.0 3.0 0.00 0.00 0.00 71 1006.5
20221206054020 32 0.0 2.0 0.00 0.00 0.00 72 1006.5
20221206053516 32 315 1.0 2.0 0.00 0.00 0.00 73 1006.4
20221206053036 33 0.0 1.0 0.00 0.00 0.00 73 1006.4
20221206052516 33 0.0 0.0 0.00 0.00 0.00 72 1006.4
20221206052036 33 0.0 0.0 0.00 0.00 0.00 72 1006.4
20221206051516 33 0.0 2.0 0.00 0.00 0.00 71 1006.3
20221206051016 33 0.0 0.0 0.00 0.00 0.00 70 1006.1
20221206050516 33 0.0 0.0 0.00 0.00 0.00 70 1006.2
20221206050015 33 0.0 0.0 0.00 0.00 0.00 69 1006.4
20221206045516 34 0.0 0.0 0.00 0.00 0.00 68 1006.5
20221206045016 34 0.0 0.0 0.00 0.00 0.00 67 1006.5
20221206044517 34 0.0 0.0 0.00 0.00 0.00 66 1006.4
20221206044016 34 0.0 2.0 0.00 0.00 0.00 66 1006.6
20221206043516 35 0 1.0 2.0 0.00 0.00 0.00 65 1006.6
20221206043056 35 0 1.0 2.0 0.00 0.00 0.00 64 1006.5
20221206042515 36 0 2.0 4.0 0.00 0.00 0.00 63 1006.5
20221206042117 37 112 1.0 4.0 0.00 0.00 0.00 60 1006.6
20221206041516 37 0.0 2.0 0.00 0.00 0.00 59 1006.8
20221206041017 37 0.0 0.0 0.00 0.00 0.00 60 1007.0
20221206040516 37 0.0 2.0 0.00 0.00 0.00 60 1006.8
20221206040019 37 112 2.0 3.0 0.00 0.00 0.00 60 1006.6
20221206035518 37 112 3.0 5.0 0.00 0.00 0.00 60 1006.7
20221206035018 38 90 4.0 7.0 0.00 0.00 0.00 59 1006.7
20221206034517 38 90 4.0 7.0 0.00 0.00 0.00 59 1006.7
20221206034017 38 112 5.0 8.0 0.00 0.00 0.00 59 1006.8
20221206033521 38 112 4.0 8.0 0.00 0.00 0.00 60 1006.9
20221206033019 38 112 3.0 7.0 0.00 0.00 0.00 59 1007.0
20221206032517 38 112 4.0 5.0 0.00 0.00 0.00 58 1007.2
20221206032017 39 112 2.0 4.0 0.00 0.00 0.00 58 1007.1
20221206031537 39 112 3.0 7.0 0.00 0.00 0.00 57 1007.0
20221206031017 40 112 6.0 10.0 0.00 0.00 0.00 56 1007.1
20221206030518 40 135 5.0 9.0 0.00 0.00 0.00 55 1007.0
20221206030018 40 135 4.0 8.0 0.00 0.00 0.00 56 1007.2
20221206025517 40 135 4.0 8.0 0.00 0.00 0.00 57 1007.1
20221206025017 41 112 7.0 10.0 0.00 0.00 0.00 56 1007.0
20221206024517 41 135 8.0 12.0 0.00 0.00 0.00 55 1007.0
20221206024017 41 135 8.0 13.0 0.00 0.00 0.00 55 1006.9
20221206023517 41 135 7.0 11.0 0.00 0.00 0.00 56 1006.8
20221206023018 41 135 9.0 14.0 0.00 0.00 0.00 55 1006.8
20221206022517 41 135 9.0 13.0 0.00 0.00 0.00 56 1006.6
20221206022018 42 135 9.0 12.0 0.00 0.00 0.00 56 1006.6
20221206021518 42 135 8.0 12.0 0.00 0.00 0.00 56 1006.6
20221206021021 42 135 9.0 12.0 0.00 0.00 0.00 56 1006.7
20221206020518 43 135 9.0 14.0 0.00 0.00 0.00 56 1006.8
20221206020057 43 135 9.0 14.0 0.00 0.00 0.00 56 1006.7
20221206015518 43 135 7.0 11.0 0.00 0.00 0.00 56 1006.6
20221206015037 43 135 8.0 12.0 0.00 0.00 0.00 56 1006.6
20221206014518 43 157 7.0 12.0 0.00 0.00 0.00 56 1006.6
20221206014018 43 157 6.0 11.0 0.00 0.00 0.00 56 1006.7
20221206013517 43 135 5.0 10.0 0.00 0.00 0.00 57 1006.8
20221206013037 43 135 6.0 10.0 0.00 0.00 0.00 57 1006.7
20221206012517 43 135 5.0 11.0 0.00 0.00 0.00 57 1006.7
20221206012018 43 135 6.0 12.0 0.00 0.00 0.00 58 1006.7
20221206011517 42 135 5.0 10.0 0.00 0.00 0.00 58 1006.8
20221206011017 42 135 4.0 8.0 0.00 0.00 0.00 59 1006.7
20221206010517 42 135 5.0 9.0 0.00 0.00 0.00 60 1006.6
20221206010017 42 112 4.0 7.0 0.00 0.00 0.00 60 1006.6
20221206005517 42 112 4.0 7.0 0.00 0.00 0.00 60 1006.5
20221206005017 42 112 4.0 5.0 0.00 0.00 0.00 60 1006.6
20221206004518 42 112 4.0 7.0 0.00 0.00 0.00 60 1006.7
20221206004037 42 112 3.0 6.0 0.00 0.00 0.00 60 1006.8
20221206003517 43 135 6.0 9.0 0.00 0.00 0.00 59 1006.5
20221206003018 43 112 6.0 9.0 0.00 0.00 0.00 59 1006.5
20221206002537 43 112 5.0 7.0 0.00 0.00 0.00 58 1006.6
20221206002017 44 112 6.0 9.0 0.00 0.00 0.00 57 1006.6
20221206001517 44 112 7.0 10.0 0.00 0.00 0.00 57 1006.6
20221206001017 44 112 7.0 10.0 0.00 0.00 0.00 57 1006.4
20221206000539 44 135 5.0 8.0 0.00 0.00 0.00 57 1006.5
20221206000017 45 135 6.0 10.0 0.00 0.00 0.00 56 1006.6
20221205235518 45 135 6.0 9.0 0.00 0.00 0.00 56 1006.7
20221205235020 45 135 5.0 7.0 0.00 0.00 0.00 56 1006.4
20221205234557 45 112 4.0 8.0 0.00 0.00 0.00 56 1006.3
20221205234017 46 112 6.0 10.0 0.00 0.00 0.00 55 1006.3
20221205233517 46 112 6.0 11.0 0.00 0.00 0.00 55 1006.1
20221205233017 46 112 5.0 10.0 0.00 0.00 0.00 54 1006.2
20221205232517 47 90 6.0 9.0 0.00 0.00 0.00 53 1006.1
20221205232017 47 112 6.0 10.0 0.00 0.00 0.00 53 1005.9
20221205231517 48 112 8.0 11.0 0.00 0.00 0.00 52 1005.7
20221205231039 48 112 8.0 11.0 0.00 0.00 0.00 51 1005.5
20221205230517 49 112 7.0 11.0 0.00 0.00 0.00 50 1005.5
20221205230017 49 112 7.0 10.0 0.00 0.00 0.00 49 1005.5
20221205225517 50 112 7.0 10.0 0.00 0.00 0.00 49 1005.5
20221205225017 50 112 8.0 11.0 0.00 0.00 0.00 48 1005.5
20221205224517 50 135 7.0 11.0 0.00 0.00 0.00 48 1005.3
20221205224018 51 135 4.0 7.0 0.00 0.00 0.00 47 1005.7
20221205223518 51 112 7.0 9.0 0.00 0.00 0.00 48 1005.6
20221205223017 51 112 8.0 11.0 0.00 0.00 0.00 47 1005.5
20221205222517 51 112 9.0 12.0 0.00 0.00 0.00 46 1005.4
20221205222017 51 135 8.0 12.0 0.00 0.00 0.00 46 1005.4
20221205221517 51 112 9.0 11.0 0.00 0.00 0.00 45 1005.2
20221205221018 52 112 9.0 12.0 0.00 0.00 0.00 45 1005.1
20221205220517 52 112 8.0 10.0 0.00 0.00 0.00 45 1005.0
20221205220017 52 135 7.0 10.0 0.00 0.00 0.00 43 1005.0
20221205215517 52 112 8.0 10.0 0.00 0.00 0.00 42 1004.8
20221205215018 53 112 7.0 10.0 0.00 0.00 0.00 41 1005.1
20221205214517 54 337 3.0 7.0 0.00 0.00 0.00 39 1004.9
20221205214018 53 247 2.0 4.0 0.00 0.00 0.00 37 1004.7
20221205213537 53 112 2.0 5.0 0.00 0.00 0.00 39 1004.7
20221205213017 53 135 2.0 5.0 0.00 0.00 0.00 40 1004.8
20221205212517 53 225 3.0 6.0 0.00 0.00 0.00 40 1004.8
20221205212018 53 202 4.0 7.0 0.00 0.00 0.00 40 1004.9
20221205211517 53 135 4.0 9.0 0.00 0.00 0.00 40 1004.8
20221205211017 53 180 5.0 9.0 0.00 0.00 0.00 40 1005.0
20221205210516 53 202 6.0 12.0 0.00 0.00 0.00 42 1005.0
20221205210017 52 157 4.0 8.0 0.00 0.00 0.00 42 1005.0
20221205205516 52 225 4.0 9.0 0.00 0.00 0.00 41 1005.0
20221205205037 51 157 3.0 7.0 0.00 0.00 0.00 43 1005.1
20221205204517 51 135 6.0 10.0 0.00 0.00 0.00 44 1005.0
20221205204017 51 135 6.0 10.0 0.00 0.00 0.00 46 1005.1
20221205203558 51 135 7.0 11.0 0.00 0.00 0.00 45 1005.0